createdAt,value
2024-02-02T00:01:54.762Z,-0.51
2024-02-02T00:04:22.931Z,-0.61
2024-02-02T00:06:51.156Z,-0.55
2024-02-02T00:09:20.940Z,-0.66
2024-02-02T00:11:49.151Z,-0.52
2024-02-02T00:14:17.379Z,-0.53
2024-02-02T00:16:45.456Z,-0.51
2024-02-02T00:19:13.652Z,-0.59
2024-02-02T00:21:41.799Z,-0.58
2024-02-02T00:24:10.183Z,-0.67
2024-02-02T00:26:39.737Z,-0.63
2024-02-02T00:29:07.838Z,-0.77
2024-02-02T00:31:35.956Z,-0.67
2024-02-02T00:34:04.173Z,-1.07
2024-02-02T00:36:32.372Z,-0.72
2024-02-02T00:38:59.631Z,-0.88
2024-02-02T00:41:27.741Z,-0.85
2024-02-02T00:43:57.296Z,-0.74
2024-02-02T00:46:25.447Z,-0.73
2024-02-02T00:48:53.672Z,-0.80
2024-02-02T00:51:21.974Z,-0.71
2024-02-02T00:53:50.237Z,-0.89
2024-02-02T00:56:18.432Z,-0.72
2024-02-02T00:58:46.525Z,-0.74
2024-02-02T01:01:16.051Z,-0.72
2024-02-02T01:03:44.196Z,-0.72
2024-02-02T01:06:12.444Z,-0.69
2024-02-02T01:08:41.030Z,-0.75
2024-02-02T01:11:09.124Z,-0.66
2024-02-02T01:13:37.221Z,-0.66
2024-02-02T01:16:05.652Z,-0.64
2024-02-02T01:18:35.585Z,-0.73
2024-02-02T01:21:03.784Z,-0.75
2024-02-02T01:23:31.819Z,-0.79
2024-02-02T01:25:59.944Z,-0.61
2024-02-02T01:28:28.138Z,-0.59
2024-02-02T01:30:56.210Z,-0.64
2024-02-02T01:33:24.369Z,-0.55
2024-02-02T01:35:54.103Z,-0.55
2024-02-02T01:38:22.575Z,-0.60
2024-02-02T01:40:50.702Z,-0.52
2024-02-02T01:43:18.805Z,-0.51
2024-02-02T01:45:46.884Z,-0.51
2024-02-02T01:48:15.436Z,-0.45
2024-02-02T01:50:43.604Z,-0.39
2024-02-02T01:53:13.221Z,-0.37
2024-02-02T01:55:41.437Z,-0.42
2024-02-02T01:58:09.615Z,-0.71
2024-02-02T02:00:38.442Z,-0.35
2024-02-02T02:03:07.378Z,-0.33
2024-02-02T02:05:37.102Z,-0.31
2024-02-02T02:08:06.886Z,-0.30
2024-02-02T02:10:36.426Z,-0.42
2024-02-02T02:13:04.743Z,-0.28
2024-02-02T02:15:32.936Z,-0.32
2024-02-02T02:18:01.289Z,-0.37
2024-02-02T02:20:31.812Z,-0.41
2024-02-02T02:23:02.079Z,-0.60
2024-02-02T02:25:30.555Z,-0.46
2024-02-02T02:27:58.744Z,-0.48
2024-02-02T02:30:26.827Z,-0.46
2024-02-02T02:32:55.060Z,-0.46
2024-02-02T02:35:23.210Z,-0.43
2024-02-02T02:37:51.314Z,-0.45
2024-02-02T02:40:20.857Z,-0.42
2024-02-02T02:42:50.268Z,-0.60
2024-02-02T02:45:18.566Z,-0.44
2024-02-02T02:47:46.767Z,-0.39
2024-02-02T02:50:15.099Z,-0.51
2024-02-02T02:52:43.156Z,-0.49
2024-02-02T02:55:11.641Z,-0.49
2024-02-02T02:57:41.179Z,-0.41
2024-02-02T03:00:11.446Z,-0.50
2024-02-02T03:02:39.593Z,-0.42
2024-02-02T03:05:08.952Z,-0.47
2024-02-02T03:07:37.183Z,-0.45
2024-02-02T03:10:06.058Z,-0.47
2024-02-02T03:12:34.230Z,-0.53
2024-02-02T03:15:04.507Z,-0.43
2024-02-02T03:17:32.857Z,-0.41
2024-02-02T03:20:01.204Z,-0.52
2024-02-02T03:22:29.414Z,-0.41
2024-02-02T03:24:57.551Z,-0.42
2024-02-02T03:27:25.668Z,-0.50
2024-02-02T03:29:53.906Z,-0.53
2024-02-02T03:32:23.386Z,-0.47
2024-02-02T03:34:51.483Z,-0.54
2024-02-02T03:37:20.986Z,-0.62
2024-02-02T03:39:49.084Z,-0.47
2024-02-02T03:42:17.342Z,-0.51
2024-02-02T03:44:45.465Z,-0.53
2024-02-02T03:47:13.628Z,-0.43
2024-02-02T03:49:43.116Z,-0.50
2024-02-02T03:52:11.322Z,-0.40
2024-02-02T03:54:39.483Z,-0.37
2024-02-02T03:57:07.626Z,-0.36
2024-02-02T03:59:35.720Z,-0.36
2024-02-02T04:02:03.874Z,-0.43
2024-02-02T04:04:32.912Z,-0.35
2024-02-02T04:07:02.606Z,-0.41
2024-02-02T04:09:30.850Z,-0.33
2024-02-02T04:11:58.976Z,-0.31
2024-02-02T04:14:27.197Z,-0.42
2024-02-02T04:16:55.265Z,-0.32
2024-02-02T04:19:23.603Z,-0.40
2024-02-02T04:21:51.879Z,-0.37
2024-02-02T04:24:21.456Z,-0.38
2024-02-02T04:26:49.598Z,-0.45
2024-02-02T04:29:17.672Z,-0.39
2024-02-02T04:31:45.724Z,-0.40
2024-02-02T04:34:13.946Z,-0.41
2024-02-02T04:36:42.596Z,-0.43
2024-02-02T04:39:11.004Z,-0.53
2024-02-02T04:41:40.510Z,-0.54
2024-02-02T04:44:08.606Z,-0.56
2024-02-02T04:46:36.676Z,-0.51
2024-02-02T04:49:05.176Z,-0.51
2024-02-02T04:51:33.529Z,-0.60
2024-02-02T04:54:01.691Z,-0.60
2024-02-02T04:56:29.893Z,-0.55
2024-02-02T04:58:59.327Z,-0.56
2024-02-02T05:01:27.422Z,-0.56
2024-02-02T05:03:55.585Z,-0.57
2024-02-02T05:06:23.831Z,-0.59
2024-02-02T05:08:52.012Z,-0.61
2024-02-02T05:11:20.110Z,-0.60
2024-02-02T05:13:48.213Z,-0.59
2024-02-02T05:16:17.707Z,-0.60
2024-02-02T05:18:46.142Z,-1.14
2024-02-02T05:21:14.274Z,-0.60
2024-02-02T05:23:48.694Z,-0.72
2024-02-02T05:26:18.103Z,-0.69
2024-02-02T05:28:46.552Z,-0.66
2024-02-02T05:31:14.639Z,-0.76
2024-02-02T05:33:47.364Z,-0.79
2024-02-02T05:36:15.946Z,-0.75
2024-02-02T05:38:44.137Z,-0.70
2024-02-02T05:41:12.219Z,-0.82
2024-02-02T05:43:40.366Z,-0.95
2024-02-02T05:46:08.523Z,-0.73
2024-02-02T05:48:36.979Z,-0.74
2024-02-02T05:51:06.958Z,-0.76
2024-02-02T05:53:35.072Z,-0.75
2024-02-02T05:56:03.173Z,-0.77
2024-02-02T05:58:31.246Z,-0.77
2024-02-02T06:00:59.375Z,-0.78
2024-02-02T06:03:27.610Z,-1.30
2024-02-02T06:05:55.965Z,-0.79
2024-02-02T06:08:25.521Z,-0.80
2024-02-02T06:10:53.620Z,-0.78
2024-02-02T06:13:21.710Z,-1.06
2024-02-02T06:15:49.907Z,-0.79
2024-02-02T06:18:18.410Z,-0.86
2024-02-02T06:20:46.609Z,-0.90
2024-02-02T06:23:14.703Z,-0.85
2024-02-02T06:25:44.305Z,-0.82
2024-02-02T06:28:14.914Z,-0.89
2024-02-02T06:30:44.007Z,-0.82
2024-02-02T06:33:12.768Z,-0.89
2024-02-02T06:35:41.079Z,-0.81
2024-02-02T06:38:09.165Z,-0.84
2024-02-02T06:40:37.232Z,-0.84
2024-02-02T06:43:06.796Z,-0.84
2024-02-02T06:45:35.311Z,-0.84
2024-02-02T06:48:03.775Z,-0.86
2024-02-02T06:50:32.410Z,-0.92
2024-02-02T06:53:00.462Z,-0.83
2024-02-02T06:55:28.568Z,-0.86
2024-02-02T06:57:56.741Z,-0.88
2024-02-02T07:00:26.355Z,-1.49
2024-02-02T07:02:54.686Z,-0.91
2024-02-02T07:05:23.352Z,-0.91
2024-02-02T07:07:52.062Z,-0.90
2024-02-02T07:10:20.558Z,-0.89
2024-02-02T07:12:56.166Z,-0.89
2024-02-02T07:15:28.764Z,-0.88
2024-02-02T07:17:57.122Z,-0.93
2024-02-02T07:21:01.935Z,-0.84
2024-02-02T07:23:38.898Z,-0.83
2024-02-02T07:26:14.505Z,-1.00
2024-02-02T07:28:42.845Z,-0.80
2024-02-02T07:31:21.966Z,-0.79
2024-02-02T07:33:50.510Z,-0.81
2024-02-02T07:36:28.723Z,-0.80
2024-02-02T07:38:57.552Z,-0.76
2024-02-02T07:41:27.559Z,-0.70
2024-02-02T07:43:56.695Z,-0.68
2024-02-02T07:46:26.258Z,-0.65
2024-02-02T07:48:55.306Z,-0.64
2024-02-02T07:51:26.058Z,-0.68
2024-02-02T07:53:55.273Z,-0.59
2024-02-02T07:56:25.725Z,-0.56
2024-02-02T07:58:53.979Z,-0.54
2024-02-02T08:01:23.094Z,-0.51
2024-02-02T08:03:52.672Z,-0.54
2024-02-02T08:06:21.585Z,-0.48
2024-02-02T08:08:49.741Z,-0.49
2024-02-02T08:11:17.866Z,-0.50
2024-02-02T08:13:46.162Z,-0.50
2024-02-02T08:16:14.392Z,-0.58
2024-02-02T08:18:43.427Z,-0.46
2024-02-02T08:21:13.104Z,-0.47
2024-02-02T08:23:41.296Z,-0.45
2024-02-02T08:26:09.520Z,-0.42
2024-02-02T08:28:48.347Z,-0.39
2024-02-02T08:31:19.933Z,-0.36
2024-02-02T08:33:48.145Z,-0.39
2024-02-02T08:36:19.505Z,-0.29
2024-02-02T08:38:47.785Z,-0.26
2024-02-02T08:41:15.981Z,-0.25
2024-02-02T08:43:44.069Z,-0.24
2024-02-02T08:46:14.738Z,-0.22
2024-02-02T08:48:46.043Z,-0.27
2024-02-02T08:51:50.687Z,-0.17
2024-02-02T08:54:38.084Z,-0.16
2024-02-02T08:57:33.362Z,-0.13
2024-02-02T09:00:07.181Z,-0.30
2024-02-02T09:03:00.408Z,0.01
2024-02-02T09:05:50.166Z,0.01
2024-02-02T09:08:29.038Z,-0.01
2024-02-02T09:11:19.791Z,0.00
2024-02-02T09:13:48.337Z,-0.04
2024-02-02T09:16:17.860Z,-0.08
2024-02-02T09:18:47.940Z,-0.02
2024-02-02T09:21:19.834Z,-0.21
2024-02-02T09:23:52.227Z,-0.08
2024-02-02T09:26:38.379Z,-0.01
2024-02-02T09:29:06.485Z,0.02
2024-02-02T09:31:37.653Z,0.09
2024-02-02T09:34:10.604Z,0.12
2024-02-02T09:36:41.148Z,0.25
2024-02-02T09:39:41.554Z,0.35
2024-02-02T09:42:24.199Z,0.42
2024-02-02T09:44:57.014Z,0.42
2024-02-02T09:47:43.664Z,0.40
2024-02-02T09:50:28.526Z,0.60
2024-02-02T09:53:43.835Z,0.70
2024-02-02T09:56:24.438Z,0.80
2024-02-02T09:58:59.850Z,0.63
2024-02-02T10:01:42.181Z,0.75
2024-02-02T10:04:22.201Z,0.68
2024-02-02T10:07:02.208Z,0.80
2024-02-02T10:09:45.942Z,0.76
2024-02-02T10:12:24.146Z,0.81
2024-02-02T10:15:15.984Z,0.82
2024-02-02T10:18:01.886Z,0.86
2024-02-02T10:20:38.413Z,0.91
2024-02-02T10:23:41.095Z,0.97
2024-02-02T10:26:34.261Z,1.03
2024-02-02T10:29:14.575Z,1.11
2024-02-02T10:31:58.735Z,1.16
2024-02-02T10:34:41.268Z,1.22
2024-02-02T10:37:21.445Z,1.31
2024-02-02T10:40:04.080Z,1.36
2024-02-02T10:42:42.516Z,1.45
2024-02-02T10:45:21.231Z,1.23
2024-02-02T10:48:02.913Z,1.28
2024-02-02T10:50:39.195Z,1.17
2024-02-02T10:53:14.111Z,1.33
2024-02-02T10:55:59.065Z,1.39
2024-02-02T10:58:41.149Z,1.45
2024-02-02T11:01:22.325Z,1.28
2024-02-02T11:03:59.522Z,1.51
2024-02-02T11:06:38.640Z,1.56
2024-02-02T11:09:18.236Z,1.61
2024-02-02T11:11:55.226Z,1.64
2024-02-02T11:14:33.359Z,1.73
2024-02-02T11:17:12.202Z,1.73
2024-02-02T11:19:57.345Z,1.72
2024-02-02T11:22:32.062Z,1.78
2024-02-02T11:25:08.010Z,1.82
2024-02-02T11:27:45.172Z,1.82
2024-02-02T11:30:36.632Z,1.93
2024-02-02T11:33:21.370Z,2.04
2024-02-02T11:36:04.485Z,2.13
2024-02-02T11:38:46.606Z,2.30
2024-02-02T11:41:20.684Z,2.51
2024-02-02T11:43:49.592Z,2.63
2024-02-02T11:46:24.204Z,2.59
2024-02-02T11:49:02.852Z,2.63
2024-02-02T11:51:31.514Z,2.50
2024-02-02T11:54:04.393Z,2.79
2024-02-02T11:56:36.982Z,2.70
2024-02-02T11:59:10.862Z,2.85
2024-02-02T12:01:48.427Z,2.87
2024-02-02T12:04:34.457Z,2.85
2024-02-02T12:07:24.927Z,2.83
2024-02-02T12:09:59.398Z,2.81
2024-02-02T12:12:33.964Z,2.80
2024-02-02T12:15:02.445Z,2.62
2024-02-02T12:17:31.307Z,2.72
2024-02-02T12:20:01.067Z,2.77
2024-02-02T12:22:30.493Z,2.73
2024-02-02T12:24:58.788Z,2.71
2024-02-02T12:27:26.959Z,2.73
2024-02-02T12:29:55.401Z,1.72
2024-02-02T12:32:23.703Z,2.74
2024-02-02T12:34:52.965Z,2.76
2024-02-02T12:37:22.645Z,2.75
2024-02-02T12:39:54.741Z,2.76
2024-02-02T12:42:24.777Z,2.75
2024-02-02T12:44:52.992Z,2.72
2024-02-02T12:47:26.348Z,2.51
2024-02-02T12:49:55.985Z,2.78
2024-02-02T12:52:25.610Z,2.78
2024-02-02T12:54:53.798Z,2.78
2024-02-02T12:57:22.658Z,2.80
2024-02-02T12:59:50.776Z,2.80
2024-02-02T13:02:21.811Z,2.87
2024-02-02T13:04:53.876Z,2.91
2024-02-02T13:07:22.295Z,2.93
2024-02-02T13:09:53.126Z,2.91
2024-02-02T13:12:29.393Z,3.00
2024-02-02T13:15:08.937Z,3.01
2024-02-02T13:17:38.485Z,3.04
2024-02-02T13:20:16.474Z,3.03
2024-02-02T13:22:51.359Z,2.87
2024-02-02T13:25:26.098Z,3.04
2024-02-02T13:27:55.303Z,3.00
2024-02-02T13:30:24.254Z,3.02
2024-02-02T13:32:53.791Z,2.82
2024-02-02T13:35:27.169Z,3.03
2024-02-02T13:37:55.415Z,3.08
2024-02-02T13:40:28.983Z,3.09
2024-02-02T13:42:59.419Z,2.59
2024-02-02T13:45:30.891Z,2.93
2024-02-02T13:48:01.754Z,3.09
2024-02-02T13:50:41.644Z,2.82
2024-02-02T13:53:10.653Z,3.07
2024-02-02T13:55:40.683Z,3.04
2024-02-02T13:58:09.379Z,2.75
2024-02-02T14:00:37.750Z,2.91
2024-02-02T14:03:11.032Z,2.83
2024-02-02T14:05:40.925Z,2.81
2024-02-02T14:08:09.675Z,2.73
2024-02-02T14:10:45.913Z,2.71
2024-02-02T14:13:16.131Z,2.70
2024-02-02T14:15:44.310Z,2.71
2024-02-02T14:18:14.734Z,2.68
2024-02-02T14:20:42.882Z,2.66
2024-02-02T14:23:12.165Z,2.63
2024-02-02T14:25:40.523Z,2.63
2024-02-02T14:28:17.445Z,2.63
2024-02-02T14:30:46.110Z,2.61
2024-02-02T14:33:25.183Z,2.57
2024-02-02T14:35:54.632Z,2.58
2024-02-02T14:38:23.003Z,2.57
2024-02-02T14:40:54.221Z,2.56
2024-02-02T14:43:23.888Z,2.55
2024-02-02T14:45:52.073Z,2.36
2024-02-02T14:48:20.793Z,2.42
2024-02-02T14:50:49.210Z,2.48
2024-02-02T14:53:17.292Z,2.40
2024-02-02T14:55:45.750Z,2.48
2024-02-02T14:58:14.765Z,2.49
2024-02-02T15:00:46.563Z,2.48
2024-02-02T15:03:15.263Z,2.41
2024-02-02T15:05:43.657Z,2.49
2024-02-02T15:08:12.923Z,2.46
2024-02-02T15:10:42.353Z,2.51
2024-02-02T15:13:11.772Z,2.51
2024-02-02T15:15:40.160Z,2.10
2024-02-02T15:18:10.353Z,2.44
2024-02-02T15:20:40.607Z,2.57
2024-02-02T15:23:09.042Z,2.40
2024-02-02T15:25:37.168Z,2.51
2024-02-02T15:28:05.743Z,2.59
2024-02-02T15:30:33.933Z,2.60
2024-02-02T15:33:02.192Z,2.40
2024-02-02T15:35:31.741Z,2.62
2024-02-02T15:37:59.898Z,2.58
2024-02-02T15:40:28.029Z,2.55
2024-02-02T15:42:56.430Z,2.63
2024-02-02T15:45:24.747Z,2.55
2024-02-02T15:47:53.046Z,2.64
2024-02-02T15:50:21.251Z,2.65
2024-02-02T15:52:50.760Z,2.60
2024-02-02T15:55:19.645Z,2.63
2024-02-02T15:57:52.014Z,2.63
2024-02-02T16:00:21.235Z,2.60
2024-02-02T16:02:49.624Z,2.63
2024-02-02T16:05:18.622Z,2.59
2024-02-02T16:07:47.619Z,2.52
2024-02-02T16:10:18.690Z,2.58
2024-02-02T16:12:46.886Z,2.64
2024-02-02T16:15:15.452Z,2.67
2024-02-02T16:17:43.646Z,2.66
2024-02-02T16:20:13.769Z,2.38
2024-02-02T16:22:43.512Z,2.67
2024-02-02T16:25:12.684Z,2.40
2024-02-02T16:27:42.277Z,2.64
2024-02-02T16:30:12.168Z,2.69
2024-02-02T16:32:40.381Z,2.71
2024-02-02T16:35:09.653Z,2.53
2024-02-02T16:37:39.801Z,2.72
2024-02-02T16:40:11.500Z,2.73
2024-02-02T16:42:41.899Z,2.72
2024-02-02T16:45:11.135Z,2.73
2024-02-02T16:47:39.717Z,2.74
2024-02-02T16:50:08.769Z,2.73
2024-02-02T16:52:37.503Z,2.74
2024-02-02T16:55:06.111Z,2.75
2024-02-02T16:57:34.498Z,2.72
2024-02-02T17:00:05.686Z,2.75
2024-02-02T17:02:33.852Z,2.75
2024-02-02T17:05:01.917Z,2.76
2024-02-02T17:07:31.067Z,2.78
2024-02-02T17:09:59.449Z,2.81
2024-02-02T17:12:27.695Z,2.82
2024-02-02T17:14:55.923Z,2.79
2024-02-02T17:17:25.628Z,2.89
2024-02-02T17:19:53.867Z,2.93
2024-02-02T17:22:22.050Z,2.82
2024-02-02T17:24:50.215Z,2.82
2024-02-02T17:27:18.380Z,2.87
2024-02-02T17:29:46.453Z,2.86
2024-02-02T17:32:17.450Z,2.86
2024-02-02T17:34:49.876Z,2.87
2024-02-02T17:37:18.236Z,2.86
2024-02-02T17:39:46.690Z,2.48
2024-02-02T17:42:15.136Z,2.88
2024-02-02T17:44:43.318Z,2.95
2024-02-02T17:47:11.653Z,2.97
2024-02-02T17:49:45.662Z,2.80
2024-02-02T17:52:18.867Z,2.92
2024-02-02T17:54:47.125Z,2.90
2024-02-02T17:57:15.306Z,2.88
2024-02-02T17:59:43.598Z,2.88
2024-02-02T18:02:12.324Z,2.85
2024-02-02T18:04:40.486Z,2.92
2024-02-02T18:07:10.655Z,2.96
2024-02-02T18:09:42.857Z,2.99
2024-02-02T18:12:13.129Z,2.78
2024-02-02T18:14:41.867Z,3.01
2024-02-02T18:17:10.589Z,2.98
2024-02-02T18:19:38.740Z,3.00
2024-02-02T18:22:06.872Z,3.01
2024-02-02T18:24:35.093Z,2.92
2024-02-02T18:27:04.991Z,2.74
2024-02-02T18:29:33.150Z,2.76
2024-02-02T18:32:01.241Z,3.04
2024-02-02T18:34:29.465Z,2.97
2024-02-02T18:36:57.649Z,3.07
2024-02-02T18:39:25.813Z,3.09
2024-02-02T18:41:53.927Z,3.12
2024-02-02T18:44:23.408Z,3.08
2024-02-02T18:46:52.474Z,3.09
2024-02-02T18:49:20.573Z,3.11
2024-02-02T18:51:49.579Z,3.18
2024-02-02T18:54:17.759Z,3.19
2024-02-02T18:56:45.868Z,3.23
2024-02-02T18:59:14.128Z,3.19
2024-02-02T19:01:43.683Z,3.32
2024-02-02T19:04:13.250Z,3.37
2024-02-02T19:06:41.514Z,3.40
2024-02-02T19:09:10.933Z,3.12
2024-02-02T19:11:39.118Z,3.44
2024-02-02T19:14:14.387Z,3.47
2024-02-02T19:16:43.839Z,3.49
2024-02-02T19:19:12.292Z,3.54
2024-02-02T19:21:41.312Z,3.56
2024-02-02T19:24:11.545Z,3.59
2024-02-02T19:26:40.668Z,3.64
2024-02-02T19:29:09.024Z,3.70
2024-02-02T19:31:40.209Z,3.74
2024-02-02T19:34:10.050Z,3.78
2024-02-02T19:36:38.284Z,3.84
2024-02-02T19:39:09.411Z,3.89
2024-02-02T19:41:37.768Z,3.93
2024-02-02T19:44:06.059Z,3.91
2024-02-02T19:46:35.432Z,3.97
2024-02-02T19:49:05.298Z,4.03
2024-02-02T19:51:35.834Z,4.07
2024-02-02T19:54:04.086Z,4.00
2024-02-02T19:56:32.414Z,4.14
2024-02-02T19:59:00.544Z,4.19
2024-02-02T20:01:30.061Z,4.21
2024-02-02T20:03:58.416Z,3.94
2024-02-02T20:06:26.779Z,4.26
2024-02-02T20:08:56.418Z,4.25
2024-02-02T20:11:26.520Z,4.23
2024-02-02T20:13:54.865Z,4.35
2024-02-02T20:16:22.991Z,4.40
2024-02-02T20:18:51.468Z,4.41
2024-02-02T20:21:21.225Z,4.42
2024-02-02T20:23:53.045Z,4.46
2024-02-02T20:26:23.079Z,4.52
2024-02-02T20:28:51.914Z,4.57
2024-02-02T20:31:21.795Z,4.61
2024-02-02T20:33:52.923Z,4.63
2024-02-02T20:36:23.876Z,4.64
2024-02-02T20:38:52.286Z,4.67
2024-02-02T20:41:26.173Z,4.65
2024-02-02T20:43:58.520Z,4.63
2024-02-02T20:46:27.085Z,4.70
2024-02-02T20:48:55.312Z,4.64
2024-02-02T20:51:23.623Z,4.72
2024-02-02T20:53:52.274Z,4.70
2024-02-02T20:56:20.972Z,4.75
2024-02-02T20:58:49.078Z,4.78
2024-02-02T21:01:18.642Z,4.75
2024-02-02T21:03:45.981Z,4.81
2024-02-02T21:06:14.401Z,4.79
2024-02-02T21:08:44.381Z,4.82
2024-02-02T21:11:12.810Z,4.86
2024-02-02T21:13:41.148Z,4.86
2024-02-02T21:16:09.488Z,4.86
2024-02-02T21:18:40.573Z,4.86
2024-02-02T21:21:08.985Z,4.80
2024-02-02T21:23:37.140Z,4.85
2024-02-02T21:26:05.560Z,4.81
2024-02-02T21:28:33.650Z,4.75
2024-02-02T21:31:02.025Z,4.70
2024-02-02T21:33:30.442Z,4.68
2024-02-02T21:36:03.753Z,4.60
2024-02-02T21:38:32.300Z,4.62
2024-02-02T21:41:00.632Z,4.59
2024-02-02T21:43:28.713Z,4.56
2024-02-02T21:45:57.370Z,4.48
2024-02-02T21:48:25.677Z,4.54
2024-02-02T21:50:54.384Z,4.45
2024-02-02T21:53:23.859Z,4.55
2024-02-02T21:55:52.112Z,4.51
2024-02-02T21:58:20.203Z,4.53
2024-02-02T22:00:48.653Z,4.54
2024-02-02T22:03:17.025Z,4.55
2024-02-02T22:05:45.105Z,4.05
2024-02-02T22:08:13.278Z,4.36
2024-02-02T22:10:42.758Z,4.65
2024-02-02T22:13:11.597Z,4.65
2024-02-02T22:15:40.009Z,4.67
2024-02-02T22:18:08.749Z,4.47
2024-02-02T22:20:36.956Z,4.66
2024-02-02T22:23:05.207Z,4.64
2024-02-02T22:25:33.676Z,4.67
2024-02-02T22:30:35.238Z,4.60
2024-02-02T22:33:03.917Z,4.67
2024-02-02T22:35:32.119Z,4.74
2024-02-02T22:38:00.244Z,4.78
2024-02-02T22:40:28.645Z,4.81
2024-02-02T22:42:56.992Z,4.85
2024-02-02T22:45:26.500Z,4.88
2024-02-02T22:47:54.722Z,4.87
2024-02-02T22:50:22.858Z,4.94
2024-02-02T22:52:50.961Z,4.60
2024-02-02T22:55:19.292Z,5.03
2024-02-02T22:57:47.401Z,4.97
2024-02-02T23:00:20.788Z,4.91
2024-02-02T23:02:50.463Z,5.03
2024-02-02T23:05:18.568Z,5.02
2024-02-02T23:07:46.645Z,5.07
2024-02-02T23:10:14.814Z,5.07
2024-02-02T23:12:43.864Z,4.97
2024-02-02T23:15:12.207Z,5.04
2024-02-02T23:17:40.309Z,5.16
2024-02-02T23:20:11.306Z,5.18
2024-02-02T23:22:41.802Z,5.20
2024-02-02T23:25:10.055Z,5.16
2024-02-02T23:27:38.525Z,5.00
2024-02-02T23:30:08.976Z,5.24
2024-02-02T23:32:37.289Z,5.23
2024-02-02T23:35:05.939Z,5.32
2024-02-02T23:37:35.508Z,5.30
2024-02-02T23:40:04.649Z,5.36
2024-02-02T23:42:32.899Z,5.40
2024-02-02T23:45:01.323Z,5.40
2024-02-02T23:47:29.447Z,5.37
2024-02-02T23:49:57.543Z,5.22
2024-02-02T23:52:25.615Z,5.36
2024-02-02T23:54:55.418Z,5.36
2024-02-02T23:57:25.801Z,5.43
2024-02-02T23:59:54.266Z,5.46
